Loretteville, Canada
Current Conditions -  °F | °C
As of 4:00 PM on Friday 31 Oct 2014 (Local Time) from CYQB Reporting Station
Broken Clouds Broken Clouds  
Wind Chill: 36°   Ceiling: 5700
Heat Index: 41°   Visibility: 30mi
Dew Point: 32°   Wind: 8mph
Humidity: 70%   Direction: 60°ENE
Pressure: 30.08"   Gusts: NA
Location:  46.85°N, 71.36°W
Report Text: CYQB 312000Z 06007KT 30SM SCT034 BKN057 05/00 A3008 RMK SC4SC3 VIRGA SLP189
Loading
Personal Weather Stations






























Interactive Weather Map
Tropical Storm Tracking
New forecast layout! Learn more

10-Day Weather Forecast

Advertisements
Track Severe Weather on mobile